Time;durP1;ratioP1;P1;durP2;ratioP2;P2;SDS_P1;SDS_P2;PMS_P1;PMS_P2;Temp;Humidity;BMP_temperature;BMP_pressure;BME280_temperature;BME280_humidity;BME280_pressure;Samples;Min_cycle;Max_cycle;Signal;HPM_P1;HPM_P2
2023/06/14 00:01:45;;;;;;;3.55;2.65;;;;;;;;;;4933098;29;20068;-83
2023/06/14 00:04:12;;;;;;;2.33;2.08;;;;;;;;;;4918545;29;20028;-81
2023/06/14 00:06:41;;;;;;;2.97;2.15;;;;;;;;;;4917265;29;20108;-81
2023/06/14 00:09:14;;;;;;;5.35;2.38;;;11.10;99.90;;;;;;4922608;29;20047;-82
2023/06/14 00:12:09;;;;;;;4.15;2.72;;;11.00;99.90;;;;;;4939209;29;20016;-82
2023/06/14 00:14:42;;;;;;;3.85;2.67;;;;;;;;;;4921584;29;20067;-82
2023/06/14 00:17:31;;;;;;;3.53;2.30;;;;;;;;;;4916479;29;20032;-82
2023/06/14 00:20:15;;;;;;;6.53;2.30;;;10.70;99.90;;;;;;4919610;29;20104;-82
2023/06/14 00:23:53;;;;;;;5.00;2.50;;;;;;;;;;4922054;29;20044;-82
2023/06/14 00:26:42;;;;;;;4.47;2.65;;;;;;;;;;4917325;29;20048;-82
2023/06/14 00:29:31;;;;;;;7.05;2.33;;;;;;;;;;4919778;29;20037;-82
2023/06/14 00:32:19;;;;;;;2.83;2.53;;;;;;;;;;4940441;29;20016;-82
2023/06/14 02:30:05;;;;;;;4.05;2.72;;;8.80;99.90;;;;;;4944694;29;20044;-82
2023/06/14 02:33:12;;;;;;;2.58;2.38;;;;;;;;;;4928607;29;20023;-82
2023/06/14 03:39:59;;;;;;;5.90;2.63;;;;;;;;;;5778048;23;20077;-81
2023/06/14 03:43:07;;;;;;;6.88;3.63;;;8.40;99.90;;;;;;4901583;29;20041;-82
2023/06/14 03:46:54;;;;;;;3.00;2.58;;;8.30;99.90;;;;;;4897690;29;20041;-82
2023/06/14 04:36:34;;;;;;;5.57;2.95;;;;;;;;;;4962776;23;20047;-81
2023/06/14 04:39:06;;;;;;;2.58;2.38;;;;;;;;;;4957079;29;20016;-82
2023/06/14 04:41:56;;;;;;;;;;;10.20;99.90;;;;;;4938889;29;20012;-81
2023/06/14 04:45:12;;;;;;;2.90;2.67;;;11.00;99.90;;;;;;4937204;29;19919;-81
2023/06/14 04:48:28;;;;;;;3.67;2.67;;;11.30;99.90;;;;;;4909610;29;20051;-81
2023/06/14 04:52:13;;;;;;;3.67;2.40;;;12.20;99.90;;;;;;4897788;29;20013;-81
2023/06/14 04:55:00;;;;;;;3.13;2.80;;;;;;;;;;4902312;29;20058;-86
2023/06/14 04:57:26;;;;;;;3.35;2.83;;;;;;;;;;4899676;29;20100;-83
2023/06/14 05:00:35;;;;;;;4.78;2.95;;;12.90;99.90;;;;;;4898869;29;20056;-83
2023/06/14 05:06:22;;;;;;;5.13;2.50;;;12.40;99.90;;;;;;4907533;29;20115;-81
2023/06/14 05:09:37;;;;;;;5.65;3.28;;;12.20;99.90;;;;;;4921370;29;20041;-81
2023/06/14 05:16:12;;;;;;;5.40;2.72;;;;;;;;;;4922031;29;20035;-82
2023/06/14 05:22:20;;;;;;;7.15;4.00;;;;;;;;;;4915816;29;20036;-78
2023/06/14 05:28:37;;;;;;;5.25;2.88;;;;;;;;;;4905758;29;20020;-84
2023/06/14 05:52:42;;;;;;;3.95;3.08;;;13.80;99.90;;;;;;4904908;29;20062;-81
2023/06/14 05:55:30;;;;;;;7.10;4.10;;;14.20;99.90;;;;;;4924328;29;20052;-79
2023/06/14 05:58:06;;;;;;;5.57;3.63;;;14.20;99.90;;;;;;4917507;29;20041;-80
2023/06/14 06:00:47;;;;;;;9.65;4.50;;;14.40;99.90;;;;;;4913136;29;20336;-82
2023/06/14 06:03:37;;;;;;;7.68;3.90;;;15.10;99.90;;;;;;4951506;29;20040;-81
2023/06/14 06:06:06;;;;;;;6.70;3.75;;;15.10;99.90;;;;;;4951072;29;20335;-87
2023/06/14 06:08:33;;;;;;;4.93;3.58;;;15.50;99.90;;;;;;4942628;29;20054;-85
2023/06/14 06:11:00;;;;;;;4.57;3.47;;;15.70;99.90;;;;;;4924377;29;20140;-84
2023/06/14 06:13:25;;;;;;;6.32;4.38;;;15.80;99.90;;;;;;4924406;29;20112;-85
2023/06/14 06:15:51;;;;;;;4.60;4.15;;;15.80;99.80;;;;;;4925560;29;20229;-84
2023/06/14 06:18:17;;;;;;;11.43;4.63;;;;;;;;;;4926486;29;20055;-83
2023/06/14 06:24:17;;;;;;;7.32;4.05;;;16.60;95.30;;;;;;4935598;29;20026;-81
2023/06/14 06:29:49;;;;;;;5.78;4.00;;;;;;;;;;5686946;23;21152;-81
2023/06/14 06:38:59;;;;;;;9.32;3.65;;;;;;;;;;4936977;29;20059;-81
2023/06/14 06:41:39;;;;;;;7.63;3.63;;;;;;;;;;4938849;28;20032;-80
2023/06/14 06:50:45;;;;;;;5.35;3.38;;;20.60;69.90;;;;;;5980890;23;20018;-83
2023/06/14 06:53:11;;;;;;;8.20;3.60;;;20.70;70.10;;;;;;4926239;29;20055;-83
2023/06/14 06:55:36;;;;;;;7.05;3.15;;;21.50;68.70;;;;;;4908644;29;20028;-82
2023/06/14 06:58:04;;;;;;;6.43;3.33;;;22.70;64.90;;;;;;4909770;29;20020;-83
2023/06/14 07:00:30;;;;;;;5.32;3.50;;;;;;;;;;4921168;29;20019;-81
2023/06/14 07:08:48;;;;;;;7.68;3.40;;;22.50;59.90;;;;;;4915291;29;20080;-85
2023/06/14 07:11:14;;;;;;;5.90;3.30;;;22.50;60.40;;;;;;4920681;29;20039;-81
2023/06/14 07:13:40;;;;;;;4.97;3.40;;;22.90;58.80;;;;;;4904315;29;20250;-83
2023/06/14 07:16:06;;;;;;;6.13;3.60;;;23.40;57.90;;;;;;4902945;29;20032;-80
2023/06/14 07:18:31;;;;;;;7.68;3.75;;;23.60;59.40;;;;;;4919650;29;20024;-80
2023/06/14 07:20:57;;;;;;;5.97;4.13;;;;;;;;;;4918993;29;20077;-83
2023/06/14 07:23:24;;;;;;;7.63;3.63;;;24.10;56.00;;;;;;4919787;29;20020;-84
2023/06/14 07:25:49;;;;;;;4.40;3.40;;;24.20;55.60;;;;;;4918939;29;20051;-80
2023/06/14 07:28:17;;;;;;;4.35;3.08;;;24.60;53.60;;;;;;4919343;29;20020;-80
2023/06/14 07:30:43;;;;;;;5.85;2.53;;;24.60;54.00;;;;;;4920222;29;20043;-81
2023/06/14 07:33:10;;;;;;;3.83;2.90;;;24.70;54.60;;;;;;4920667;29;20028;-81
2023/06/14 07:35:35;;;;;;;5.35;2.88;;;24.80;51.50;;;;;;4920302;29;20465;-81
2023/06/14 07:38:01;;;;;;;7.07;3.80;;;24.60;53.50;;;;;;4909888;29;20025;-81
2023/06/14 07:40:27;;;;;;;3.20;2.65;;;24.70;53.40;;;;;;4920009;29;20209;-79
2023/06/14 07:42:54;;;;;;;3.30;2.35;;;24.50;53.60;;;;;;4905217;29;20382;-81
2023/06/14 07:45:20;;;;;;;6.47;3.45;;;24.50;53.70;;;;;;4904097;29;20025;-85
2023/06/14 07:47:45;;;;;;;7.85;3.85;;;24.20;51.50;;;;;;4920461;29;20214;-83
2023/06/14 07:50:12;;;;;;;5.38;3.08;;;23.50;52.40;;;;;;4920168;29;20341;-81
2023/06/14 07:52:38;;;;;;;9.73;3.35;;;23.70;54.60;;;;;;4919979;29;20043;-81
2023/06/14 07:55:05;;;;;;;4.10;2.90;;;23.90;54.90;;;;;;4905930;29;20044;-85
2023/06/14 07:57:31;;;;;;;2.80;2.58;;;24.30;54.40;;;;;;4892108;29;20417;-83
2023/06/14 07:59:57;;;;;;;3.38;2.90;;;23.80;51.60;;;;;;4922614;29;20557;-80
2023/06/14 08:02:24;;;;;;;3.28;2.90;;;;;;;;;;4901336;29;20041;-82
2023/06/14 08:04:54;;;;;;;6.07;3.00;;;23.50;55.00;;;;;;4903001;29;20096;-79
2023/06/14 08:07:19;;;;;;;5.38;2.90;;;23.80;55.20;;;;;;4904933;29;20048;-79
2023/06/14 08:09:45;;;;;;;5.80;3.45;;;23.70;55.80;;;;;;4931950;29;20031;-79
2023/06/14 08:12:11;;;;;;;6.32;3.35;;;24.10;56.90;;;;;;4907137;29;20051;-80
2023/06/14 08:14:36;;;;;;;3.50;2.92;;;23.90;53.80;;;;;;4913837;29;20118;-80
2023/06/14 08:17:02;;;;;;;7.25;3.45;;;24.20;52.90;;;;;;4903126;29;20032;-84
2023/06/14 08:19:28;;;;;;;7.07;2.92;;;24.10;53.00;;;;;;4897166;29;20025;-83
2023/06/14 08:21:55;;;;;;;4.15;3.10;;;24.20;52.10;;;;;;4914606;29;20035;-83
2023/06/14 08:24:29;;;;;;;4.65;2.95;;;24.30;53.50;;;;;;4899539;29;20028;-81
2023/06/14 08:26:56;;;;;;;3.35;2.53;;;24.30;53.80;;;;;;4901878;29;20120;-81
2023/06/14 08:29:22;;;;;;;3.83;3.50;;;24.10;53.50;;;;;;4921832;29;20604;-83
2023/06/14 08:31:48;;;;;;;4.47;2.80;;;;;;;;;;4924631;29;20088;-85
2023/06/14 08:34:13;;;;;;;3.53;2.75;;;24.50;52.10;;;;;;4931151;29;20040;-81
2023/06/14 08:36:39;;;;;;;7.53;3.00;;;24.80;52.40;;;;;;4916300;29;20075;-80
2023/06/14 08:39:05;;;;;;;5.18;2.60;;;24.90;54.90;;;;;;4900061;29;20087;-82
2023/06/14 08:41:32;;;;;;;7.53;3.10;;;24.80;53.60;;;;;;4915733;29;20436;-82
2023/06/14 08:43:58;;;;;;;4.70;2.50;;;25.30;52.50;;;;;;4915332;29;20055;-81
2023/06/14 08:46:27;;;;;;;5.32;3.13;;;25.30;51.40;;;;;;4915469;29;20020;-83
2023/06/14 08:48:56;;;;;;;3.22;2.63;;;24.90;51.30;;;;;;4914661;29;20393;-81
2023/06/14 08:51:22;;;;;;;;;;;25.20;51.40;;;;;;4914647;29;20056;-80
2023/06/14 08:53:57;;;;;;;6.13;3.20;;;25.20;54.10;;;;;;4930516;29;19931;-81
2023/06/14 08:56:27;;;;;;;5.20;2.90;;;24.60;53.80;;;;;;4914795;29;20359;-86
2023/06/14 08:58:54;;;;;;;4.80;3.42;;;24.30;54.30;;;;;;4929358;29;20028;-85
2023/06/14 09:01:21;;;;;;;4.47;2.45;;;24.50;55.10;;;;;;4914336;29;20028;-79
2023/06/14 09:03:48;;;;;;;3.42;2.92;;;24.30;53.70;;;;;;4914408;29;20035;-83
2023/06/14 09:06:15;;;;;;;4.00;2.72;;;24.10;53.60;;;;;;4928433;29;20138;-85
2023/06/14 09:08:43;;;;;;;9.43;2.58;;;24.30;53.30;;;;;;4899491;29;20059;-78
2023/06/14 09:11:10;;;;;;;5.80;2.90;;;;;;;;;;4900228;29;20024;-82
2023/06/14 09:13:36;;;;;;;5.40;3.00;;;;;;;;;;4919010;29;20047;-82
2023/06/14 09:16:03;;;;;;;2.75;2.38;;;24.70;52.00;;;;;;4916155;29;20032;-83
2023/06/14 09:18:44;;;;;;;4.05;3.15;;;24.50;53.40;;;;;;4911650;29;20601;-81
2023/06/14 09:21:11;;;;;;;4.38;2.72;;;24.60;51.90;;;;;;4921591;29;20537;-83
2023/06/14 09:23:41;;;;;;;4.30;2.90;;;24.70;51.20;;;;;;4922013;29;20026;-81
2023/06/14 09:26:23;;;;;;;9.07;2.88;;;24.50;51.40;;;;;;4927885;29;20028;-82
2023/06/14 09:28:49;;;;;;;3.90;2.72;;;24.50;51.50;;;;;;4940474;29;20118;-84
2023/06/14 09:31:17;;;;;;;5.60;3.13;;;24.80;52.60;;;;;;4920081;29;20034;-83
2023/06/14 09:33:48;;;;;;;6.68;2.72;;;24.70;51.50;;;;;;4902685;29;20032;-83
2023/06/14 09:36:20;;;;;;;3.85;2.22;;;25.30;51.20;;;;;;4904319;29;20029;-82
2023/06/14 09:39:00;;;;;;;6.93;2.50;;;25.20;52.10;;;;;;4921993;29;20048;-81
2023/06/14 09:41:37;;;;;;;4.70;2.47;;;25.30;51.60;;;;;;4920970;29;20090;-80
2023/06/14 09:44:06;;;;;;;4.82;2.50;;;25.70;51.20;;;;;;4920917;29;20488;-81
2023/06/14 09:46:32;;;;;;;3.97;2.75;;;25.20;50.80;;;;;;4936164;29;20082;-84
2023/06/14 09:48:59;;;;;;;4.65;2.45;;;25.20;54.30;;;;;;4919988;29;20032;-83
2023/06/14 09:51:26;;;;;;;3.88;2.78;;;25.30;49.80;;;;;;4905240;29;20137;-83
2023/06/14 09:53:52;;;;;;;4.78;2.45;;;25.60;51.00;;;;;;4921781;29;20043;-83
2023/06/14 09:56:27;;;;;;;4.07;2.67;;;25.30;50.30;;;;;;4921762;29;20136;-87
2023/06/14 09:58:56;;;;;;;8.32;2.40;;;25.60;50.20;;;;;;4922888;29;20039;-84
2023/06/14 10:01:27;;;;;;;2.83;2.50;;;25.60;50.30;;;;;;4921313;29;20038;-84
2023/06/14 10:04:04;;;;;;;3.78;2.50;;;25.50;50.50;;;;;;4921380;29;20380;-84
2023/06/14 10:06:31;;;;;;;4.55;2.50;;;25.60;48.10;;;;;;4919811;29;20104;-82
2023/06/14 10:09:01;;;;;;;3.40;2.60;;;25.50;48.80;;;;;;4902848;29;20060;-83
2023/06/14 10:11:27;;;;;;;4.10;2.55;;;25.60;48.40;;;;;;4904679;29;20040;-83
2023/06/14 10:13:54;;;;;;;6.20;2.90;;;26.10;48.30;;;;;;4903107;29;20036;-81
2023/06/14 10:16:46;;;;;;;7.70;2.38;;;26.50;48.80;;;;;;4903741;29;20031;-82
2023/06/14 10:19:15;;;;;;;3.47;2.70;;;26.80;49.70;;;;;;4911509;29;20032;-80
2023/06/14 10:21:55;;;;;;;6.27;2.40;;;26.80;49.50;;;;;;4931448;29;20034;-83
2023/06/14 10:24:30;;;;;;;5.35;2.45;;;27.30;49.10;;;;;;4915336;29;20333;-83
2023/06/14 10:26:59;;;;;;;3.08;2.38;;;27.20;47.40;;;;;;4898918;29;20031;-82
2023/06/14 10:29:25;;;;;;;2.63;2.42;;;27.00;48.30;;;;;;4898914;29;20035;-83
2023/06/14 10:31:56;;;;;;;5.20;3.15;;;27.00;48.50;;;;;;4899194;29;20548;-84
2023/06/14 10:34:24;;;;;;;6.30;2.47;;;27.10;45.90;;;;;;4900695;29;20040;-83
2023/06/14 10:37:13;;;;;;;5.00;2.60;;;27.10;46.70;;;;;;4901777;29;20020;-82
2023/06/14 10:39:42;;;;;;;7.53;2.53;;;27.40;47.20;;;;;;4901951;29;20043;-85
2023/06/14 10:42:09;;;;;;;2.67;2.30;;;27.80;45.70;;;;;;4895758;29;20080;-85
2023/06/14 10:44:55;;;;;;;7.43;2.85;;;27.90;44.50;;;;;;4899993;29;20501;-82
2023/06/14 10:47:29;;;;;;;5.47;2.50;;;28.00;45.10;;;;;;4882856;29;20036;-76
2023/06/14 10:50:02;;;;;;;6.97;3.03;;;27.60;45.90;;;;;;4898643;29;20080;-84
2023/06/14 10:52:32;;;;;;;2.97;2.35;;;27.70;43.70;;;;;;4913125;29;20036;-78
2023/06/14 10:55:18;;;;;;;10.52;3.20;;;27.70;44.70;;;;;;4896796;29;20043;-77
2023/06/14 10:57:58;;;;;;;9.13;2.65;;;28.80;43.80;;;;;;4896577;29;20028;-79
2023/06/14 11:00:26;;;;;;;2.50;2.30;;;29.20;43.90;;;;;;4896988;29;20120;-76
2023/06/14 11:03:08;;;;;;;8.55;2.70;;;29.60;42.40;;;;;;4879961;29;20060;-78
2023/06/14 11:05:52;;;;;;;3.85;2.15;;;30.20;42.40;;;;;;4912104;29;20049;-75
2023/06/14 11:08:50;;;;;;;4.10;2.28;;;30.60;41.90;;;;;;4929559;29;20050;-80
2023/06/14 11:11:16;;;;;;;20.05;2.80;;;31.50;43.30;;;;;;4918198;29;20027;-79
2023/06/14 11:13:45;;;;;;;3.60;2.00;;;31.10;42.40;;;;;;4934581;29;20088;-78
2023/06/14 11:16:12;;;;;;;;;;;30.70;41.30;;;;;;4934365;29;20035;-80
2023/06/14 11:18:38;;;;;;;2.67;2.45;;;30.40;40.50;;;;;;4919038;29;19911;-79
2023/06/14 11:21:04;;;;;;;2.75;2.15;;;30.30;41.40;;;;;;4916060;29;20034;-79
2023/06/14 11:23:30;;;;;;;2.15;1.95;;;29.50;42.50;;;;;;4917050;29;20499;-76
2023/06/14 11:25:55;;;;;;;4.30;2.75;;;29.90;42.50;;;;;;4919536;29;20056;-76
2023/06/14 11:28:21;;;;;;;8.48;2.33;;;30.50;42.00;;;;;;4914397;29;20039;-77
2023/06/14 11:30:48;;;;;;;5.88;2.47;;;30.60;42.70;;;;;;4915110;29;20020;-77
2023/06/14 11:33:20;;;;;;;4.25;2.80;;;30.40;41.20;;;;;;4913697;29;20028;-78
2023/06/14 11:35:47;;;;;;;5.30;3.00;;;;;;;;;;4915576;29;20024;-79
2023/06/14 11:38:13;;;;;;;3.45;2.50;;;;;;;;;;4930872;29;20530;-80
2023/06/14 11:40:39;;;;;;;2.03;1.83;;;30.70;41.80;;;;;;4915681;29;20028;-82
2023/06/14 11:43:05;;;;;;;3.70;2.63;;;30.70;43.60;;;;;;4913496;29;20477;-81
2023/06/14 11:45:31;;;;;;;3.28;2.92;;;30.70;42.00;;;;;;4937736;29;20031;-84
2023/06/14 11:47:58;;;;;;;4.47;3.22;;;29.70;42.00;;;;;;4936720;29;20052;-79
2023/06/14 11:50:24;;;;;;;2.63;2.42;;;29.20;43.10;;;;;;4916347;29;20068;-83
2023/06/14 11:52:57;;;;;;;2.80;2.42;;;29.90;41.50;;;;;;4933158;29;20168;-79
2023/06/14 11:55:24;;;;;;;3.90;2.80;;;30.30;42.80;;;;;;4917720;29;20393;-81
2023/06/14 11:57:50;;;;;;;3.15;2.25;;;;;;;;;;4918044;29;20027;-81
2023/06/14 12:00:17;;;;;;;4.07;2.50;;;31.60;40.20;;;;;;4934478;29;20028;-80
2023/06/14 12:02:52;;;;;;;2.67;2.42;;;31.40;42.00;;;;;;4919042;29;20019;-83
2023/06/14 12:05:21;;;;;;;6.75;2.80;;;30.20;41.00;;;;;;4918750;29;20062;-81
2023/06/14 12:07:47;;;;;;;4.47;3.00;;;30.10;41.60;;;;;;4915579;29;20453;-80
2023/06/14 12:10:14;;;;;;;3.83;2.20;;;30.60;42.30;;;;;;4915564;29;20033;-82
2023/06/14 12:12:40;;;;;;;4.90;2.67;;;31.70;40.80;;;;;;4899186;29;20032;-79
2023/06/14 12:15:07;;;;;;;3.40;2.40;;;32.40;41.30;;;;;;4915537;29;20040;-79
2023/06/14 12:17:35;;;;;;;3.53;2.72;;;32.60;40.70;;;;;;4915665;29;20083;-81
2023/06/14 12:20:13;;;;;;;3.20;2.58;;;31.40;39.10;;;;;;4899710;29;20035;-83
2023/06/14 12:22:47;;;;;;;2.40;2.20;;;31.10;42.60;;;;;;4915298;29;20035;-82
2023/06/14 12:25:26;;;;;;;4.97;3.08;;;31.40;41.20;;;;;;4914998;29;20036;-82
2023/06/14 12:27:53;;;;;;;2.53;2.30;;;30.70;41.20;;;;;;4915498;29;20393;-81
2023/06/14 12:30:19;;;;;;;5.60;2.33;;;30.40;41.50;;;;;;4915620;29;20035;-80
2023/06/14 12:32:45;;;;;;;7.28;2.50;;;31.10;41.20;;;;;;4915285;29;20032;-81
2023/06/14 12:35:11;;;;;;;6.32;2.20;;;31.50;40.80;;;;;;4915315;29;20038;-81
2023/06/14 12:37:36;;;;;;;6.15;2.70;;;31.30;40.80;;;;;;4915197;29;20111;-81
2023/06/14 12:40:06;;;;;;;5.60;2.60;;;32.10;39.50;;;;;;4899129;29;20039;-79
2023/06/14 12:42:33;;;;;;;8.65;2.28;;;31.50;40.70;;;;;;4921106;29;20107;-82
2023/06/14 12:44:59;;;;;;;5.18;2.63;;;30.80;41.00;;;;;;4906090;29;20628;-83
2023/06/14 12:47:25;;;;;;;7.63;2.55;;;30.50;41.30;;;;;;4913582;29;20024;-81
2023/06/14 12:49:51;;;;;;;8.23;3.03;;;31.10;41.00;;;;;;4912378;29;20084;-82
2023/06/14 12:52:17;;;;;;;4.70;2.90;;;31.30;40.60;;;;;;4914577;29;20535;-80
2023/06/14 12:54:42;;;;;;;4.68;2.47;;;32.10;41.20;;;;;;4913773;29;20040;-79
2023/06/14 12:57:09;;;;;;;3.03;2.40;;;;;;;;;;4912968;29;20025;-83
2023/06/14 12:59:35;;;;;;;6.15;2.50;;;32.40;39.50;;;;;;4904336;29;20024;-81
2023/06/14 13:02:17;;;;;;;5.40;2.70;;;31.00;41.10;;;;;;4914857;29;20060;-83
2023/06/14 13:04:44;;;;;;;11.23;3.35;;;30.90;42.10;;;;;;4898451;29;20342;-81
2023/06/14 13:07:10;;;;;;;8.32;2.65;;;31.60;41.30;;;;;;4923053;29;20079;-80
2023/06/14 13:09:36;;;;;;;3.20;2.30;;;32.30;40.50;;;;;;4916489;29;20057;-78
2023/06/14 13:12:03;;;;;;;2.55;2.05;;;33.20;41.00;;;;;;4916416;29;20028;-80
2023/06/14 13:14:29;;;;;;;6.78;2.60;;;;;;;;;;4915584;29;20027;-78
2023/06/14 13:16:55;;;;;;;3.17;2.85;;;32.90;39.20;;;;;;4930394;29;20083;-79
2023/06/14 13:19:21;;;;;;;6.05;2.83;;;32.40;40.50;;;;;;4927342;29;20237;-81
2023/06/14 13:21:47;;;;;;;3.05;2.50;;;30.90;40.50;;;;;;4942115;29;20161;-81
2023/06/14 13:24:13;;;;;;;5.10;3.00;;;31.20;43.20;;;;;;4925256;29;20062;-80
2023/06/14 13:26:38;;;;;;;4.20;2.67;;;30.60;41.30;;;;;;4925111;29;20111;-80
2023/06/14 13:29:04;;;;;;;3.45;2.97;;;30.90;40.40;;;;;;4941240;29;20027;-81
2023/06/14 13:31:30;;;;;;;4.15;2.20;;;;;;;;;;4941293;29;20063;-82
2023/06/14 13:33:56;;;;;;;6.10;2.60;;;30.30;41.60;;;;;;4941418;29;20050;-81
2023/06/14 13:36:22;;;;;;;3.53;2.53;;;;;;;;;;4942016;29;20015;-80
2023/06/14 13:38:47;;;;;;;7.80;3.03;;;30.40;41.10;;;;;;4941063;29;20058;-78
2023/06/14 13:41:13;;;;;;;5.13;2.90;;;30.10;41.50;;;;;;4942016;29;20223;-80
2023/06/14 13:43:39;;;;;;;8.55;2.72;;;29.80;41.10;;;;;;4922898;29;20324;-80
2023/06/14 13:46:04;;;;;;;3.20;2.90;;;30.60;41.30;;;;;;4923263;29;20080;-80
2023/06/14 13:48:30;;;;;;;2.97;2.38;;;31.40;40.40;;;;;;4906073;29;20028;-77
2023/06/14 13:50:56;;;;;;;7.53;2.75;;;32.70;39.80;;;;;;4911197;29;20028;-79
2023/06/14 13:53:22;;;;;;;5.90;2.50;;;33.30;37.90;;;;;;4929379;29;20024;-81
2023/06/14 13:55:48;;;;;;;6.30;2.72;;;33.30;38.60;;;;;;4929360;29;20074;-77
2023/06/14 13:58:14;;;;;;;3.42;2.50;;;32.30;39.40;;;;;;4929271;29;20109;-78
2023/06/14 14:00:40;;;;;;;4.65;2.40;;;31.80;40.80;;;;;;4913358;29;20502;-78
2023/06/14 14:03:06;;;;;;;4.30;2.67;;;31.90;41.90;;;;;;4929465;29;20036;-76
2023/06/14 14:05:32;;;;;;;5.63;2.80;;;32.70;39.50;;;;;;4932607;29;20132;-77
2023/06/14 14:07:58;;;;;;;5.22;2.50;;;32.50;39.50;;;;;;4916244;29;20501;-80
2023/06/14 14:10:27;;;;;;;3.45;2.38;;;33.80;42.50;;;;;;4915095;29;20206;-81
2023/06/14 14:12:54;;;;;;;7.03;3.05;;;30.30;41.50;;;;;;4917188;29;20059;-81
2023/06/14 14:15:20;;;;;;;5.32;3.25;;;29.70;42.50;;;;;;4916867;29;20166;-81
2023/06/14 14:17:47;;;;;;;3.63;2.70;;;30.10;41.10;;;;;;4917226;29;20077;-80
2023/06/14 14:20:15;;;;;;;2.47;2.28;;;30.30;41.50;;;;;;4935483;29;20034;-80
2023/06/14 14:22:41;;;;;;;4.72;2.60;;;30.40;43.30;;;;;;4919415;29;20035;-80
2023/06/14 14:25:08;;;;;;;4.35;2.58;;;30.10;42.80;;;;;;4919001;29;20075;-83
2023/06/14 14:27:33;;;;;;;6.15;2.58;;;29.80;41.60;;;;;;4922120;29;20063;-80
2023/06/14 14:29:59;;;;;;;5.25;2.75;;;30.10;42.50;;;;;;4927985;29;20032;-80
2023/06/14 14:32:24;;;;;;;4.53;2.72;;;30.30;42.30;;;;;;4934677;29;20024;-80
2023/06/14 14:34:51;;;;;;;6.47;2.50;;;;;;;;;;4937149;29;20036;-81
2023/06/14 14:37:16;;;;;;;6.65;3.00;;;30.70;40.90;;;;;;4922274;29;20083;-81
2023/06/14 14:39:44;;;;;;;5.53;2.78;;;30.90;41.00;;;;;;4924085;29;20028;-81
2023/06/14 14:42:11;;;;;;;3.00;2.35;;;;;;;;;;4919715;29;20023;-81
2023/06/14 14:44:36;;;;;;;8.07;2.88;;;30.40;41.90;;;;;;4935981;29;20023;-81
2023/06/14 14:47:02;;;;;;;6.68;2.65;;;30.00;44.10;;;;;;4919653;29;20115;-82
2023/06/14 14:49:28;;;;;;;4.60;2.85;;;29.90;43.40;;;;;;4919184;29;20036;-82
2023/06/14 14:51:56;;;;;;;3.10;2.85;;;29.20;43.70;;;;;;4935959;29;20496;-82
2023/06/14 14:54:21;;;;;;;5.28;2.65;;;29.50;42.70;;;;;;4919257;29;20074;-81
2023/06/14 14:56:51;;;;;;;6.35;2.72;;;;;;;;;;4918655;29;20099;-81
2023/06/14 14:59:18;;;;;;;5.20;2.85;;;;;;;;;;4935865;29;20035;-81
2023/06/14 15:01:45;;;;;;;4.32;2.88;;;;;;;;;;4934076;29;20117;-79
2023/06/14 15:04:11;;;;;;;5.38;3.30;;;;;;;;;;4933962;29;20027;-78
2023/06/14 15:06:39;;;;;;;5.07;3.03;;;;;;;;;;4936945;29;20122;-80
2023/06/14 15:09:05;;;;;;;3.30;2.70;;;;;;;;;;4943142;29;20067;-81
2023/06/14 15:11:31;;;;;;;8.90;2.65;;;;;;;;;;4942727;29;20298;-79
2023/06/14 15:13:57;;;;;;;2.85;2.50;;;;;;;;;;4941567;29;20031;-81
2023/06/14 15:16:24;;;;;;;3.35;2.58;;;;;;;;;;4942511;29;20023;-82
2023/06/14 15:18:50;;;;;;;8.15;3.05;;;;;;;;;;4943080;29;20208;-82
2023/06/14 15:21:16;;;;;;;2.60;2.40;;;28.60;44.20;;;;;;4942883;29;20027;-81
2023/06/14 15:23:42;;;;;;;6.72;2.95;;;;;;;;;;4943185;29;20062;-80
2023/06/14 15:26:08;;;;;;;3.85;2.90;;;;;;;;;;4939285;29;20219;-79
2023/06/14 15:28:33;;;;;;;6.32;2.70;;;30.10;43.80;;;;;;4941634;29;20042;-79
2023/06/14 15:31:02;;;;;;;8.77;2.90;;;29.50;43.60;;;;;;4926142;29;20045;-78
2023/06/14 15:33:28;;;;;;;;;;;29.40;42.70;;;;;;4925883;29;20307;-80
2023/06/14 15:35:53;;;;;;;4.68;2.85;;;29.30;43.30;;;;;;4940498;29;20021;-79
2023/06/14 15:38:21;;;;;;;3.92;3.10;;;29.20;43.20;;;;;;4932442;29;20481;-78
2023/06/14 15:40:47;;;;;;;10.18;2.80;;;28.60;43.90;;;;;;4914751;29;20039;-78
2023/06/14 15:43:13;;;;;;;2.65;2.45;;;28.30;43.60;;;;;;4929560;29;20029;-80
2023/06/14 15:45:39;;;;;;;5.10;2.95;;;28.50;45.40;;;;;;4926072;29;20020;-79
2023/06/14 15:48:05;;;;;;;4.65;2.72;;;28.70;43.80;;;;;;4916633;29;20476;-80
2023/06/14 15:50:31;;;;;;;3.20;2.85;;;28.60;44.80;;;;;;4914798;29;20039;-78
2023/06/14 15:52:57;;;;;;;4.45;2.78;;;28.80;44.50;;;;;;4914767;29;20405;-81
2023/06/14 15:55:22;;;;;;;5.60;3.00;;;28.80;44.40;;;;;;4914420;29;20358;-80
2023/06/14 15:57:48;;;;;;;2.55;2.33;;;29.00;44.10;;;;;;4931576;29;20107;-78
2023/06/14 16:00:14;;;;;;;8.30;2.90;;;;;;;;;;4931632;29;20067;-78
2023/06/14 16:02:40;;;;;;;5.05;2.80;;;;;;;;;;4931335;29;20043;-78
2023/06/14 16:05:06;;;;;;;3.05;2.47;;;28.20;44.60;;;;;;4932456;29;20516;-78
2023/06/14 16:07:32;;;;;;;3.53;2.25;;;;;;;;;;4929474;29;20055;-84
2023/06/14 16:09:58;;;;;;;6.20;2.80;;;28.20;45.70;;;;;;4930471;29;20302;-78
2023/06/14 16:12:23;;;;;;;3.80;2.40;;;28.00;45.10;;;;;;4931851;29;20283;-80
2023/06/14 16:14:49;;;;;;;4.47;2.55;;;27.40;44.30;;;;;;4930536;29;20568;-78
2023/06/14 16:17:15;;;;;;;5.30;2.92;;;;;;;;;;4930628;29;20031;-79
2023/06/14 16:19:41;;;;;;;3.00;2.70;;;27.80;44.70;;;;;;4930444;29;20028;-79
2023/06/14 16:22:07;;;;;;;2.95;2.47;;;;;;;;;;4914780;29;20373;-79
2023/06/14 16:24:32;;;;;;;7.07;3.50;;;27.60;44.60;;;;;;4931770;29;20473;-78
2023/06/14 16:26:58;;;;;;;6.45;2.83;;;27.60;45.90;;;;;;4930756;29;20034;-79
2023/06/14 16:29:24;;;;;;;3.15;2.53;;;27.80;45.10;;;;;;4931358;29;20101;-78
2023/06/14 16:31:50;;;;;;;3.65;3.00;;;27.20;45.40;;;;;;4914252;29;20024;-79
2023/06/14 16:34:16;;;;;;;8.57;2.47;;;;;;;;;;4914091;29;20513;-79
2023/06/14 16:36:43;;;;;;;4.35;2.97;;;27.70;44.60;;;;;;4929937;29;20020;-79
2023/06/14 16:39:09;;;;;;;6.40;3.35;;;27.70;44.50;;;;;;4914654;29;20032;-78
2023/06/14 16:41:34;;;;;;;7.30;2.60;;;27.10;46.30;;;;;;4914090;29;20031;-79
2023/06/14 16:44:03;;;;;;;4.38;2.50;;;27.10;47.10;;;;;;4928983;29;20114;-78
2023/06/14 16:46:33;;;;;;;6.55;2.50;;;26.90;46.40;;;;;;4914619;29;20123;-79
2023/06/14 16:49:00;;;;;;;5.18;2.58;;;26.90;46.30;;;;;;4931410;29;20103;-78
2023/06/14 16:51:26;;;;;;;3.65;3.13;;;27.10;46.80;;;;;;4914191;29;20028;-80
2023/06/14 16:53:52;;;;;;;3.10;2.53;;;26.80;45.70;;;;;;4914192;29;20036;-78
2023/06/14 16:56:19;;;;;;;6.18;2.95;;;26.90;46.50;;;;;;4929681;29;20043;-79
2023/06/14 16:58:45;;;;;;;3.05;2.85;;;26.60;46.80;;;;;;4920920;29;20048;-79
2023/06/14 17:01:12;;;;;;;4.50;3.17;;;26.70;47.00;;;;;;4920098;29;20591;-78
2023/06/14 17:03:37;;;;;;;2.97;2.67;;;26.40;46.80;;;;;;4931370;29;20019;-80
2023/06/14 17:06:04;;;;;;;12.85;3.33;;;26.40;47.50;;;;;;4916686;29;20324;-78
2023/06/14 17:08:29;;;;;;;3.50;3.00;;;26.50;47.30;;;;;;4920298;29;20039;-79
2023/06/14 17:10:56;;;;;;;4.32;2.65;;;;;;;;;;4936768;29;20059;-79
2023/06/14 17:13:22;;;;;;;3.20;2.70;;;26.30;47.00;;;;;;4933101;29;20094;-78
2023/06/14 17:15:48;;;;;;;7.50;2.92;;;26.50;48.00;;;;;;4920845;29;20552;-79
2023/06/14 17:18:14;;;;;;;4.28;2.97;;;26.80;46.40;;;;;;4932946;29;20720;-77
2023/06/14 17:20:39;;;;;;;4.18;2.97;;;26.60;46.70;;;;;;4918075;29;20055;-77
2023/06/14 17:23:05;;;;;;;5.93;2.53;;;26.20;47.30;;;;;;4933510;29;20024;-80
2023/06/14 17:25:30;;;;;;;6.28;2.80;;;26.20;47.10;;;;;;4918866;29;20024;-78
2023/06/14 17:27:57;;;;;;;3.90;2.90;;;26.20;48.10;;;;;;4931904;29;20079;-80
2023/06/14 17:30:23;;;;;;;2.97;2.67;;;26.50;47.70;;;;;;4916278;29;20024;-79
2023/06/14 17:32:49;;;;;;;3.13;2.80;;;26.50;46.50;;;;;;4930477;29;20035;-79
2023/06/14 17:35:14;;;;;;;2.60;2.40;;;26.10;47.90;;;;;;4914449;29;20381;-79
2023/06/14 17:37:40;;;;;;;17.75;3.33;;;26.20;48.00;;;;;;4927068;29;20078;-78
2023/06/14 17:40:07;;;;;;;3.08;2.70;;;26.30;47.50;;;;;;4912053;29;20027;-79
2023/06/14 17:42:32;;;;;;;4.07;2.88;;;26.20;47.80;;;;;;4915244;29;20086;-78
2023/06/14 17:44:58;;;;;;;5.00;2.72;;;26.10;48.10;;;;;;4915496;29;20028;-79
2023/06/14 17:47:25;;;;;;;5.70;3.38;;;26.20;48.20;;;;;;4914447;29;20031;-81
2023/06/14 17:49:53;;;;;;;9.43;2.85;;;25.90;48.00;;;;;;4922761;29;20544;-78
2023/06/14 17:52:21;;;;;;;9.00;3.00;;;25.80;48.40;;;;;;4921397;29;20031;-80
2023/06/14 17:54:47;;;;;;;6.90;3.00;;;25.70;48.20;;;;;;4939270;29;20260;-79
2023/06/14 17:57:14;;;;;;;4.45;2.35;;;25.50;48.20;;;;;;4924377;29;20035;-79
2023/06/14 17:59:39;;;;;;;6.78;2.83;;;25.50;48.30;;;;;;4922779;29;20043;-80
2023/06/14 18:02:06;;;;;;;4.70;2.67;;;25.30;48.80;;;;;;4923814;29;20035;-80
2023/06/14 18:04:32;;;;;;;11.15;2.80;;;25.40;49.10;;;;;;4918902;29;21399;-79
2023/06/14 18:06:59;;;;;;;2.90;2.70;;;25.60;49.20;;;;;;4939401;29;20056;-79
2023/06/14 18:09:26;;;;;;;4.80;3.20;;;25.50;48.70;;;;;;4922816;29;20023;-78